EDT,Max TemperatureF,Mean TemperatureF,Min TemperatureF,Max Dew PointF,MeanDew PointF,Min DewpointF,Max Humidity, Mean Humidity, Min Humidity, Max Sea Level PressureIn, Mean Sea Level PressureIn, Min Sea Level PressureIn, Max VisibilityMiles, Mean VisibilityMiles, Min VisibilityMiles, Max Wind SpeedMPH, Mean Wind SpeedMPH, Max Gust SpeedMPH,PrecipitationIn, CloudCover, Events, WindDirDegrees
2013-8-1,84,75,66,73,69,66,100,83,58,30.05,30.01,29.98,10,8,0,12,4,,0.00,4,,346
2013-8-2,86,73,60,70,64,59,100,76,40,30.08,30.05,30.02,10,7,0,5,1,,0.00,2,,257
2013-8-3,82,74,66,72,69,64,100,88,62,30.11,30.07,30.02,10,10,4,8,1,,0.00,2,,185
2013-8-4,84,75,66,72,69,63,100,81,58,30.12,30.09,30.06,10,8,2,10,3,,0.00,4,,351
2013-8-5,82,73,64,70,64,59,100,77,45,30.12,30.07,30.01,10,10,3,6,0,,0.00,1,,244
2013-8-6,82,75,68,73,70,64,100,85,74,30.04,30.00,29.97,10,10,5,12,1,,0.00,5,,192
2013-8-7,80,74,69,73,72,68,100,95,78,30.06,30.01,29.96,10,9,0,12,2,,0.00,5,,130
2013-8-8,84,76,69,75,70,66,100,89,74,30.05,30.02,29.98,10,10,3,14,5,,0.00,3,,130
2013-8-9,89,79,69,75,72,68,100,82,62,30.10,30.05,30.01,10,10,10,12,3,,0.00,1,,179
2013-8-10,86,78,71,75,73,70,100,87,66,30.17,30.12,30.09,10,9,2,9,2,,0.00,2,,218
2013-8-11,87,78,69,75,72,68,100,86,62,30.18,30.14,30.10,10,9,0,9,2,,0.00,1,,224
2013-8-12,86,78,69,75,73,70,100,88,66,30.14,30.08,30.01,10,10,2,12,2,,0.00,2,,220
2013-8-13,82,76,71,73,71,70,100,87,66,30.03,29.98,29.94,10,10,4,8,3,,0.00,5,,281
2013-8-14,78,70,62,70,63,57,100,78,54,30.08,30.03,29.98,10,10,7,13,5,,0.00,2,,12
2013-8-15,77,66,55,66,60,55,100,80,61,30.09,30.06,30.04,10,10,7,12,3,,0.00,4,,139
2013-8-16,73,66,60,64,61,57,94,80,69,30.13,30.09,30.06,10,10,9,14,3,,0.00,7,,129
2013-8-17,71,68,64,64,63,61,94,84,73,30.15,30.12,30.08,10,10,10,9,3,,0.00,7,,119
2013-8-18,75,70,66,68,65,63,94,86,73,30.19,30.15,30.11,10,9,1,13,4,,0.00,8,,168
2013-8-19,80,74,68,72,68,66,100,86,70,30.17,30.12,30.07,10,10,2,9,4,,0.00,6,,108
2013-8-20,84,76,68,72,70,66,100,85,66,30.18,30.13,30.10,10,10,1,13,6,,0.00,3,,141
2013-8-21,78,73,68,73,71,66,100,92,78,30.23,30.18,30.14,10,9,1,12,5,,0.00,2,,125
2013-8-22,87,78,68,73,70,66,100,84,58,30.20,30.14,30.08,10,10,4,7,1,,0.00,4,,127
2013-8-23,87,76,64,75,69,64,100,82,51,30.13,30.09,30.03,10,8,0,8,1,,0.00,1,,23
2013-8-24,87,76,64,72,68,63,100,81,55,30.24,30.16,30.10,10,9,2,9,2,,0.00,1,,126
2013-8-25,84,74,64,70,64,61,94,72,48,30.36,30.30,30.24,10,10,10,14,6,,0.00,0,,135
2013-8-26,84,72,60,70,62,59,94,72,48,30.34,30.27,30.19,10,10,10,6,2,,0.00,1,,110
2013-8-27,84,72,60,70,64,61,100,77,51,30.21,30.16,30.09,10,10,5,6,1,,0.00,0,,341
2013-8-28,87,74,62,72,68,63,100,80,52,30.12,30.09,30.04,10,9,2,7,1,,0.00,1,,307
2013-8-29,89,76,64,73,70,64,100,79,55,30.09,30.05,29.99,10,8,0,9,2,,0.00,1,,286
2013-8-30,91,80,69,75,72,70,100,81,55,30.04,30.00,29.95,10,9,0,10,2,,0.00,1,,159
2013-8-31,93,81,69,75,71,68,100,79,44,29.99,29.95,29.90,10,10,8,8,3,,0.00,0,,130